Logandale, Nevada
Current Conditions -  °F | °C
As of 7:58 PM on Tuesday 27 Jan 2015 (Local Time) from KLSV Reporting Station
Clear Clear  
Wind Chill: 55°   Ceiling: Unl
Heat Index: 55°   Visibility: 10mi
Dew Point: 50°   Wind: 12mph
Humidity: 82%   Direction: 60°ENE
Pressure: 30.2"   Gusts: NA
Location:  36.6°N, 114.49°W
Report Text: KLSV 280358Z AUTO 06010KT 10SM CLR 13/10 A3020 RMK AO2 SLP222 T01290099 $
Loading
Personal Weather Stations






























Interactive Weather Map New forecast layout! Learn more

10-Day Weather Forecast

Advertisements
Track Severe Weather on mobile